createdAt,value
2019-03-24T00:00:06.089Z,27.60
2019-03-24T00:02:34.111Z,28.80
2019-03-24T00:05:02.470Z,28.77
2019-03-24T00:07:30.385Z,26.87
2019-03-24T00:09:58.587Z,28.23
2019-03-24T00:12:27.272Z,27.63
2019-03-24T00:14:56.212Z,26.40
2019-03-24T00:17:24.406Z,27.03
2019-03-24T00:19:52.682Z,26.87
2019-03-24T00:22:21.182Z,28.37
2019-03-24T00:24:49.803Z,27.73
2019-03-24T00:27:17.732Z,27.57
2019-03-24T00:29:46.581Z,27.43
2019-03-24T00:32:14.766Z,30.90
2019-03-24T00:34:42.682Z,34.60
2019-03-24T00:37:10.920Z,37.03
2019-03-24T00:39:39.147Z,35.47
2019-03-24T00:42:07.729Z,33.93
2019-03-24T00:44:35.993Z,33.77
2019-03-24T00:47:04.302Z,32.40
2019-03-24T00:49:33.096Z,29.83
2019-03-24T00:52:02.211Z,27.20
2019-03-24T00:54:30.918Z,28.10
2019-03-24T00:56:59.897Z,26.30
2019-03-24T00:59:28.165Z,27.37
2019-03-24T01:01:56.744Z,27.83
2019-03-24T01:04:25.031Z,28.10
2019-03-24T01:06:52.945Z,27.67
2019-03-24T01:09:21.545Z,27.93
2019-03-24T01:11:50.157Z,28.07
2019-03-24T01:14:18.753Z,26.77
2019-03-24T01:16:46.672Z,27.57
2019-03-24T01:19:14.632Z,27.47
2019-03-24T01:21:43.029Z,28.17
2019-03-24T01:24:11.280Z,27.60
2019-03-24T01:26:39.876Z,27.27
2019-03-24T01:29:08.401Z,27.57
2019-03-24T01:31:36.312Z,26.00
2019-03-24T01:34:04.950Z,27.67
2019-03-24T01:36:32.915Z,26.40
2019-03-24T01:39:01.089Z,27.40
2019-03-24T01:41:29.344Z,28.23
2019-03-24T01:43:57.272Z,27.60
2019-03-24T01:46:25.719Z,28.53
2019-03-24T01:48:54.308Z,29.03
2019-03-24T01:51:22.270Z,28.10
2019-03-24T01:53:50.205Z,26.17
2019-03-24T01:56:18.157Z,28.20
2019-03-24T01:58:46.372Z,27.57
2019-03-24T02:01:14.324Z,28.77
2019-03-24T02:03:42.893Z,28.13
2019-03-24T02:06:10.805Z,28.50
2019-03-24T02:08:38.983Z,27.37
2019-03-24T02:11:07.873Z,27.17
2019-03-24T02:13:36.358Z,28.17
2019-03-24T02:16:09.317Z,30.00
2019-03-24T02:18:35.261Z,28.23
2019-03-24T02:21:03.244Z,28.57
2019-03-24T02:23:31.473Z,29.10
2019-03-24T02:26:00.196Z,28.13
2019-03-24T02:28:28.474Z,29.47
2019-03-24T02:30:56.773Z,28.03
2019-03-24T02:33:24.687Z,29.20
2019-03-24T02:35:52.966Z,27.87
2019-03-24T02:38:21.253Z,28.80
2019-03-24T02:40:49.845Z,27.20
2019-03-24T02:43:17.771Z,27.23
2019-03-24T02:45:46.009Z,27.03
2019-03-24T02:48:14.260Z,26.77
2019-03-24T02:50:42.706Z,27.67
2019-03-24T02:53:10.977Z,29.40
2019-03-24T02:55:38.957Z,25.97
2019-03-24T02:58:07.447Z,29.50
2019-03-24T03:00:36.061Z,28.23
2019-03-24T03:03:04.492Z,27.93
2019-03-24T03:05:32.414Z,28.37
2019-03-24T03:08:00.672Z,28.87
2019-03-24T03:10:29.728Z,28.07
2019-03-24T03:12:57.685Z,28.60
2019-03-24T03:15:25.654Z,27.80
2019-03-24T03:17:54.193Z,30.37
2019-03-24T03:20:22.775Z,29.30
2019-03-24T03:22:50.781Z,30.20
2019-03-24T03:25:19.343Z,30.63
2019-03-24T03:27:47.932Z,29.33
2019-03-24T03:30:16.581Z,31.50
2019-03-24T03:32:44.770Z,29.67
2019-03-24T03:35:13.577Z,29.10
2019-03-24T03:37:41.526Z,30.10
2019-03-24T03:40:10.154Z,30.90
2019-03-24T03:42:39.125Z,31.63
2019-03-24T03:45:08.274Z,30.10
2019-03-24T03:47:36.794Z,30.50
2019-03-24T03:50:05.514Z,29.80
2019-03-24T03:52:33.742Z,30.40
2019-03-24T03:55:02.225Z,29.63
2019-03-24T03:57:30.497Z,29.80
2019-03-24T03:59:59.278Z,29.77
2019-03-24T04:02:27.670Z,29.03
2019-03-24T04:04:56.588Z,29.73
2019-03-24T04:07:25.323Z,29.70
2019-03-24T04:09:53.543Z,27.60
2019-03-24T04:12:22.093Z,28.63
2019-03-24T04:14:50.658Z,28.57
2019-03-24T04:17:18.956Z,29.00
2019-03-24T04:19:47.907Z,28.30
2019-03-24T04:22:16.142Z,26.77
2019-03-24T04:24:44.499Z,27.53
2019-03-24T04:27:12.697Z,28.00
2019-03-24T04:29:40.622Z,26.50
2019-03-24T04:32:09.383Z,26.73
2019-03-24T04:34:37.839Z,28.00
2019-03-24T04:37:06.541Z,19.83
2019-03-24T04:39:34.445Z,14.93
2019-03-24T04:42:03.057Z,18.13
2019-03-24T04:44:30.990Z,22.43
2019-03-24T04:46:59.484Z,23.40
2019-03-24T04:49:27.957Z,24.30
2019-03-24T04:51:56.421Z,21.97
2019-03-24T04:54:24.936Z,21.93
2019-03-24T04:56:53.442Z,22.40
2019-03-24T04:59:22.005Z,22.97
2019-03-24T05:01:49.929Z,20.63
2019-03-24T05:04:18.174Z,20.23
2019-03-24T05:06:46.463Z,20.13
2019-03-24T05:09:15.133Z,21.30
2019-03-24T05:11:43.676Z,20.40
2019-03-24T05:14:11.952Z,19.47
2019-03-24T05:16:40.248Z,19.97
2019-03-24T05:19:08.257Z,20.60
2019-03-24T05:21:36.199Z,21.87
2019-03-24T05:24:04.812Z,21.37
2019-03-24T05:26:33.236Z,23.00
2019-03-24T05:29:01.871Z,21.33
2019-03-24T05:31:30.255Z,19.30
2019-03-24T05:33:58.184Z,17.80
2019-03-24T05:36:26.422Z,19.80
2019-03-24T05:38:54.662Z,19.93
2019-03-24T05:41:23.136Z,21.10
2019-03-24T05:43:51.124Z,21.67
2019-03-24T05:46:19.713Z,23.00
2019-03-24T05:48:47.957Z,23.77
2019-03-24T05:51:16.661Z,22.83
2019-03-24T05:53:45.342Z,21.97
2019-03-24T05:56:13.921Z,21.07
2019-03-24T05:58:42.139Z,21.27
2019-03-24T06:01:10.048Z,20.83
2019-03-24T06:03:37.980Z,20.70
2019-03-24T06:06:06.208Z,20.50
2019-03-24T06:08:35.848Z,19.87
2019-03-24T06:11:04.196Z,21.63
2019-03-24T06:13:32.128Z,22.77
2019-03-24T06:16:00.863Z,21.57
2019-03-24T06:18:29.428Z,22.97
2019-03-24T06:20:58.220Z,24.57
2019-03-24T06:23:26.462Z,23.60
2019-03-24T06:25:54.682Z,23.47
2019-03-24T06:28:23.173Z,19.60
2019-03-24T06:30:51.406Z,15.80
2019-03-24T06:33:19.326Z,18.70
2019-03-24T06:35:47.957Z,15.03
2019-03-24T06:38:16.527Z,14.27
2019-03-24T06:40:45.012Z,14.27
2019-03-24T06:43:13.535Z,14.47
2019-03-24T06:45:42.084Z,14.20
2019-03-24T06:48:10.697Z,14.43
2019-03-24T06:50:38.969Z,14.00
2019-03-24T06:53:07.200Z,14.60
2019-03-24T06:55:35.692Z,14.03
2019-03-24T06:58:04.024Z,13.50
2019-03-24T07:00:32.589Z,14.57
2019-03-24T07:03:00.520Z,14.00
2019-03-24T07:05:28.845Z,13.53
2019-03-24T07:07:57.724Z,13.43
2019-03-24T07:10:26.422Z,16.40
2019-03-24T07:12:54.693Z,17.70
2019-03-24T07:15:22.689Z,17.70
2019-03-24T07:17:51.134Z,18.20
2019-03-24T07:20:19.301Z,17.30
2019-03-24T07:22:47.225Z,16.70
2019-03-24T07:25:15.694Z,18.17
2019-03-24T07:27:44.244Z,16.30
2019-03-24T07:30:13.401Z,16.90
2019-03-24T07:32:42.025Z,16.60
2019-03-24T07:35:10.440Z,16.60
2019-03-24T07:37:38.977Z,16.70
2019-03-24T07:40:08.703Z,16.70
2019-03-24T07:42:37.924Z,16.43
2019-03-24T07:45:06.668Z,15.23
2019-03-24T07:47:34.959Z,16.20
2019-03-24T07:50:03.358Z,15.63
2019-03-24T07:52:31.284Z,15.60
2019-03-24T07:54:59.900Z,15.13
2019-03-24T07:57:28.124Z,15.67
2019-03-24T07:59:56.068Z,15.33
2019-03-24T08:02:23.989Z,16.40
2019-03-24T08:04:52.281Z,16.40
2019-03-24T08:07:21.040Z,16.70
2019-03-24T08:09:48.977Z,16.03
2019-03-24T08:12:16.897Z,16.87
2019-03-24T08:14:45.201Z,16.00
2019-03-24T08:17:13.452Z,16.23
2019-03-24T08:19:41.638Z,16.80
2019-03-24T08:22:10.059Z,16.93
2019-03-24T08:24:37.970Z,16.07
2019-03-24T08:27:05.894Z,16.10
2019-03-24T08:29:34.424Z,15.93
2019-03-24T08:32:02.691Z,18.00
2019-03-24T08:34:31.348Z,16.83
2019-03-24T08:37:00.197Z,16.30
2019-03-24T08:39:28.117Z,15.33
2019-03-24T08:41:56.754Z,16.73
2019-03-24T08:44:25.732Z,16.90
2019-03-24T08:46:54.247Z,16.67
2019-03-24T08:49:22.449Z,17.43
2019-03-24T08:51:51.324Z,17.20
2019-03-24T08:54:20.066Z,17.77
2019-03-24T08:56:48.308Z,17.60
2019-03-24T08:59:16.926Z,16.30
2019-03-24T09:01:44.861Z,18.13
2019-03-24T09:04:13.142Z,17.07
2019-03-24T09:06:42.081Z,18.30
2019-03-24T09:09:10.783Z,17.80
2019-03-24T09:11:39.451Z,18.23
2019-03-24T09:14:07.440Z,19.03
2019-03-24T09:16:35.981Z,21.27
2019-03-24T09:19:04.157Z,20.33
2019-03-24T09:21:32.119Z,19.63
2019-03-24T09:24:00.322Z,18.03
2019-03-24T09:26:28.545Z,16.00
2019-03-24T09:28:59.128Z,16.23
2019-03-24T09:31:26.775Z,16.37
2019-03-24T09:33:55.434Z,15.90
2019-03-24T09:36:23.997Z,15.27
2019-03-24T09:38:52.185Z,16.23
2019-03-24T09:41:20.174Z,15.20
2019-03-24T09:43:48.574Z,15.43
2019-03-24T09:46:17.338Z,15.47
2019-03-24T09:48:45.652Z,15.30
2019-03-24T09:51:13.960Z,16.00
2019-03-24T09:53:41.886Z,15.40
2019-03-24T09:56:09.816Z,16.87
2019-03-24T09:58:38.387Z,17.07
2019-03-24T10:01:07.117Z,17.90
2019-03-24T10:03:36.106Z,17.80
2019-03-24T10:06:04.057Z,17.00
2019-03-24T10:08:32.960Z,17.50
2019-03-24T10:11:01.337Z,18.57
2019-03-24T10:13:29.617Z,20.27
2019-03-24T10:15:57.826Z,19.40
2019-03-24T10:18:26.294Z,20.70
2019-03-24T10:20:54.764Z,20.50
2019-03-24T10:23:22.708Z,20.47
2019-03-24T10:25:51.383Z,20.93
2019-03-24T10:28:19.606Z,21.83
2019-03-24T10:30:47.516Z,21.47
2019-03-24T10:33:15.456Z,21.10
2019-03-24T10:35:43.986Z,23.20
2019-03-24T10:38:11.900Z,23.60
2019-03-24T10:40:40.150Z,24.33
2019-03-24T10:43:08.400Z,23.80
2019-03-24T10:45:36.669Z,23.53
2019-03-24T10:48:05.702Z,20.90
2019-03-24T10:50:33.869Z,22.00
2019-03-24T10:53:02.061Z,20.13
2019-03-24T10:55:30.940Z,18.87
2019-03-24T10:57:59.185Z,17.07
2019-03-24T11:00:37.172Z,16.20
2019-03-24T11:03:05.497Z,17.13
2019-03-24T11:05:33.765Z,16.37
2019-03-24T11:08:01.664Z,16.83
2019-03-24T11:10:29.842Z,16.40
2019-03-24T11:12:57.806Z,14.80
2019-03-24T11:15:26.637Z,13.90
2019-03-24T11:17:54.812Z,14.33
2019-03-24T11:20:23.013Z,13.63
2019-03-24T11:22:51.293Z,14.27
2019-03-24T11:25:19.223Z,12.97
2019-03-24T11:27:47.742Z,14.07
2019-03-24T11:30:16.581Z,12.77
2019-03-24T11:32:44.865Z,11.77
2019-03-24T11:35:13.132Z,12.13
2019-03-24T11:37:41.790Z,10.67
2019-03-24T11:40:10.438Z,11.00
2019-03-24T11:42:39.199Z,12.00
2019-03-24T11:45:07.625Z,9.77
2019-03-24T11:47:35.901Z,10.03
2019-03-24T11:50:03.968Z,9.20
2019-03-24T11:52:32.177Z,9.93
2019-03-24T11:55:00.937Z,8.73
2019-03-24T11:57:29.137Z,9.77
2019-03-24T11:59:57.694Z,8.67
2019-03-24T12:02:26.038Z,7.60
2019-03-24T12:04:54.552Z,7.70
2019-03-24T12:07:22.813Z,8.90
2019-03-24T12:09:50.804Z,7.60
2019-03-24T12:12:19.470Z,6.50
2019-03-24T12:14:47.834Z,6.30
2019-03-24T12:17:16.489Z,6.80
2019-03-24T12:19:44.416Z,6.47
2019-03-24T12:22:13.072Z,6.00
2019-03-24T12:24:42.097Z,5.40
2019-03-24T12:27:10.560Z,5.63
2019-03-24T12:29:38.850Z,5.43
2019-03-24T12:32:07.443Z,5.40
2019-03-24T12:34:36.162Z,5.23
2019-03-24T12:37:04.700Z,5.03
2019-03-24T12:39:32.624Z,4.70
2019-03-24T12:42:00.837Z,4.33
2019-03-24T12:44:28.873Z,4.77
2019-03-24T12:46:56.785Z,4.60
2019-03-24T12:49:25.626Z,6.30
2019-03-24T12:51:53.848Z,6.07
2019-03-24T12:54:21.763Z,8.03
2019-03-24T12:56:49.988Z,7.97
2019-03-24T12:59:18.891Z,9.20
2019-03-24T13:01:46.784Z,8.77
2019-03-24T13:04:15.408Z,8.30
2019-03-24T13:06:43.671Z,9.43
2019-03-24T13:09:11.946Z,10.33
2019-03-24T13:11:40.260Z,9.73
2019-03-24T13:14:08.862Z,10.37
2019-03-24T13:16:39.828Z,10.10
2019-03-24T13:19:08.065Z,10.80
2019-03-24T13:21:36.546Z,9.97
2019-03-24T13:24:04.784Z,9.80
2019-03-24T13:26:33.029Z,9.80
2019-03-24T13:29:01.752Z,9.07
2019-03-24T13:31:29.981Z,9.43
2019-03-24T13:33:58.245Z,10.93
2019-03-24T13:36:26.515Z,10.43
2019-03-24T13:38:55.044Z,9.30
2019-03-24T13:41:23.550Z,8.57
2019-03-24T13:43:52.217Z,8.57
2019-03-24T13:46:21.077Z,8.87
2019-03-24T13:48:49.337Z,8.40
2019-03-24T13:51:17.425Z,6.87
2019-03-24T13:53:45.366Z,5.53
2019-03-24T13:56:13.605Z,5.00
2019-03-24T13:58:42.432Z,4.40
2019-03-24T14:01:10.882Z,3.90
2019-03-24T14:03:39.094Z,3.93
2019-03-24T14:06:07.261Z,4.20
2019-03-24T14:08:35.746Z,3.80
2019-03-24T14:11:03.974Z,3.43
2019-03-24T14:13:31.910Z,3.53
2019-03-24T14:16:00.730Z,3.70
2019-03-24T14:18:29.160Z,3.70
2019-03-24T14:20:57.334Z,3.70
2019-03-24T14:23:25.568Z,3.57
2019-03-24T14:25:54.095Z,4.40
2019-03-24T14:28:23.077Z,3.60
2019-03-24T14:30:51.464Z,3.60
2019-03-24T14:33:19.418Z,3.30
2019-03-24T14:35:47.653Z,3.40
2019-03-24T14:38:16.512Z,3.23
2019-03-24T14:40:44.738Z,3.13
2019-03-24T14:43:12.653Z,3.20
2019-03-24T14:45:40.622Z,3.37
2019-03-24T14:48:08.975Z,3.60
2019-03-24T14:50:37.564Z,3.00
2019-03-24T14:53:06.270Z,2.67
2019-03-24T14:55:34.759Z,2.60
2019-03-24T14:58:02.979Z,2.93
2019-03-24T15:00:34.569Z,2.97
2019-03-24T15:03:03.413Z,2.80
2019-03-24T15:05:31.977Z,2.80
2019-03-24T15:08:00.319Z,2.33
2019-03-24T15:10:28.617Z,3.10
2019-03-24T15:12:56.803Z,2.57
2019-03-24T15:15:25.653Z,2.60
2019-03-24T15:17:54.152Z,2.50
2019-03-24T15:20:22.309Z,2.97
2019-03-24T15:22:51.214Z,2.50
2019-03-24T15:25:19.197Z,2.23
2019-03-24T15:27:47.114Z,2.40
2019-03-24T15:30:15.368Z,2.00
2019-03-24T15:32:43.552Z,2.20
2019-03-24T15:35:11.474Z,2.50
2019-03-24T15:37:40.450Z,2.13
2019-03-24T15:40:09.544Z,2.60
2019-03-24T15:42:37.789Z,2.10
2019-03-24T15:45:06.414Z,2.10
2019-03-24T15:47:34.477Z,2.30
2019-03-24T15:50:02.381Z,2.10
2019-03-24T15:52:30.308Z,2.00
2019-03-24T15:54:58.477Z,1.97
2019-03-24T15:57:26.409Z,2.00
2019-03-24T15:59:54.866Z,1.90
2019-03-24T16:02:23.129Z,1.73
2019-03-24T16:04:51.378Z,1.80
2019-03-24T16:07:19.293Z,1.73
2019-03-24T16:09:47.589Z,2.10
2019-03-24T16:12:15.992Z,1.70
2019-03-24T16:14:43.982Z,2.00
2019-03-24T16:17:11.983Z,1.80
2019-03-24T16:19:40.334Z,1.57
2019-03-24T16:22:08.602Z,1.70
2019-03-24T16:24:36.821Z,1.67
2019-03-24T16:27:05.570Z,1.67
2019-03-24T16:29:34.125Z,1.67
2019-03-24T16:32:02.318Z,1.70
2019-03-24T16:34:30.921Z,2.27
2019-03-24T16:36:59.086Z,1.70
2019-03-24T16:39:27.642Z,1.60
2019-03-24T16:41:56.125Z,1.53
2019-03-24T16:44:24.097Z,1.63
2019-03-24T16:46:52.395Z,1.40
2019-03-24T16:49:20.933Z,1.83
2019-03-24T16:51:49.324Z,1.53
2019-03-24T16:54:18.246Z,1.80
2019-03-24T16:56:46.537Z,2.00
2019-03-24T16:59:15.118Z,1.83
2019-03-24T17:01:43.705Z,1.63
2019-03-24T17:04:11.607Z,1.60
2019-03-24T17:06:39.929Z,1.67
2019-03-24T17:09:07.933Z,2.13
2019-03-24T17:11:36.194Z,1.50
2019-03-24T17:14:04.361Z,1.80
2019-03-24T17:16:33.044Z,1.83
2019-03-24T17:19:01.364Z,1.33
2019-03-24T17:21:29.398Z,1.73
2019-03-24T17:23:58.354Z,1.90
2019-03-24T17:26:26.306Z,1.73
2019-03-24T17:28:54.832Z,1.60
2019-03-24T17:31:23.201Z,1.43
2019-03-24T17:33:51.688Z,1.67
2019-03-24T17:36:19.865Z,1.90
2019-03-24T17:38:48.457Z,2.03
2019-03-24T17:41:16.746Z,1.60
2019-03-24T17:43:45.393Z,1.73
2019-03-24T17:46:14.054Z,1.90
2019-03-24T17:48:42.578Z,1.97
2019-03-24T17:51:10.881Z,2.07
2019-03-24T17:53:39.849Z,2.30
2019-03-24T17:56:08.027Z,2.30
2019-03-24T17:58:36.305Z,2.40
2019-03-24T18:01:04.289Z,2.30
2019-03-24T18:03:32.225Z,1.97
2019-03-24T18:06:00.128Z,2.23
2019-03-24T18:08:28.053Z,1.80
2019-03-24T18:10:56.311Z,1.90
2019-03-24T18:13:24.523Z,1.70
2019-03-24T18:15:52.429Z,1.40
2019-03-24T18:18:20.981Z,1.60
2019-03-24T18:20:49.205Z,1.53
2019-03-24T18:23:17.157Z,1.60
2019-03-24T18:25:45.808Z,1.83
2019-03-24T18:28:14.468Z,1.17
2019-03-24T18:30:42.482Z,2.80
2019-03-24T18:33:11.141Z,4.20
2019-03-24T18:35:39.198Z,3.37
2019-03-24T18:38:08.161Z,2.20
2019-03-24T18:40:36.850Z,2.33
2019-03-24T18:43:04.757Z,2.50
2019-03-24T18:45:33.005Z,2.10
2019-03-24T18:48:01.272Z,2.10
2019-03-24T18:50:29.209Z,1.90
2019-03-24T18:52:57.118Z,1.80
2019-03-24T18:55:25.047Z,1.53
2019-03-24T18:57:53.293Z,2.50
2019-03-24T19:00:21.241Z,7.50
2019-03-24T19:02:49.506Z,7.47
2019-03-24T19:05:17.413Z,4.60
2019-03-24T19:07:45.336Z,6.60
2019-03-24T19:10:13.663Z,19.33
2019-03-24T19:12:41.910Z,18.33
2019-03-24T19:15:10.440Z,7.87
2019-03-24T19:17:38.633Z,4.60
2019-03-24T19:20:08.661Z,4.17
2019-03-24T19:22:36.600Z,2.60
2019-03-24T19:25:05.351Z,2.00
2019-03-24T19:27:33.265Z,3.40
2019-03-24T19:30:01.458Z,3.30
2019-03-24T19:32:30.190Z,2.80
2019-03-24T19:34:58.801Z,2.10
2019-03-24T19:37:26.752Z,1.43
2019-03-24T19:39:54.660Z,1.43
2019-03-24T19:44:59.113Z,1.23
2019-03-24T19:47:28.055Z,1.80
2019-03-24T19:49:56.609Z,1.67
2019-03-24T19:52:24.781Z,1.67
2019-03-24T19:54:53.348Z,2.10
2019-03-24T19:57:21.920Z,1.43
2019-03-24T19:59:50.138Z,1.50
2019-03-24T20:02:18.324Z,1.50
2019-03-24T20:04:46.802Z,1.50
2019-03-24T20:07:14.975Z,1.73
2019-03-24T20:09:42.889Z,2.10
2019-03-24T20:12:11.624Z,2.33
2019-03-24T20:14:40.089Z,2.30
2019-03-24T20:17:08.746Z,1.57
2019-03-24T20:19:36.971Z,1.90
2019-03-24T20:22:04.888Z,2.10
2019-03-24T20:24:32.837Z,2.50
2019-03-24T20:27:00.802Z,1.90
2019-03-24T20:29:29.464Z,2.00
2019-03-24T20:31:57.714Z,2.27
2019-03-24T20:34:26.001Z,2.30
2019-03-24T20:36:54.193Z,2.00
2019-03-24T20:39:22.770Z,2.40
2019-03-24T20:41:51.058Z,1.97
2019-03-24T20:44:19.816Z,2.60
2019-03-24T20:46:47.729Z,2.33
2019-03-24T20:49:15.956Z,2.57
2019-03-24T20:51:44.245Z,2.30
2019-03-24T20:54:12.427Z,2.57
2019-03-24T20:56:40.366Z,4.83
2019-03-24T20:59:08.631Z,4.03
2019-03-24T21:01:37.247Z,3.30
2019-03-24T21:04:05.516Z,3.50
2019-03-24T21:06:34.112Z,3.10
2019-03-24T21:09:02.277Z,3.03
2019-03-24T21:11:30.557Z,2.60
2019-03-24T21:13:58.801Z,2.27
2019-03-24T21:16:28.431Z,2.40
2019-03-24T21:18:56.834Z,3.13
2019-03-24T21:21:25.511Z,2.50
2019-03-24T21:23:53.998Z,2.70
2019-03-24T21:26:22.581Z,2.87
2019-03-24T21:28:51.159Z,2.80
2019-03-24T21:31:19.766Z,2.37
2019-03-24T21:33:48.045Z,2.93
2019-03-24T21:36:16.296Z,2.70
2019-03-24T21:38:44.848Z,3.77
2019-03-24T21:41:13.130Z,2.83
2019-03-24T21:43:41.291Z,3.10
2019-03-24T21:46:09.218Z,2.97
2019-03-24T21:48:37.408Z,2.97
2019-03-24T21:51:05.584Z,2.50
2019-03-24T21:53:40.681Z,3.03
2019-03-24T21:56:04.041Z,2.93
2019-03-24T21:58:32.222Z,2.83
2019-03-24T22:01:00.866Z,2.80
2019-03-24T22:03:29.088Z,2.83
2019-03-24T22:05:57.339Z,2.97
2019-03-24T22:08:25.568Z,2.90
2019-03-24T22:10:54.113Z,3.10
2019-03-24T22:13:22.064Z,3.10
2019-03-24T22:15:50.670Z,2.63
2019-03-24T22:18:19.347Z,3.70
2019-03-24T22:20:49.071Z,3.10
2019-03-24T22:23:17.255Z,2.93
2019-03-24T22:25:45.812Z,2.80
2019-03-24T22:28:14.665Z,2.97
2019-03-24T22:30:42.882Z,3.50
2019-03-24T22:33:11.524Z,4.50
2019-03-24T22:35:39.462Z,3.90
2019-03-24T22:38:08.085Z,3.33
2019-03-24T22:40:37.017Z,2.93
2019-03-24T22:43:05.203Z,2.77
2019-03-24T22:45:33.467Z,2.50
2019-03-24T22:48:01.477Z,2.50
2019-03-24T22:50:29.874Z,3.10
2019-03-24T22:52:57.805Z,2.23
2019-03-24T22:55:25.800Z,2.30
2019-03-24T22:57:54.029Z,2.90
2019-03-24T23:00:41.741Z,2.37
2019-03-24T23:03:10.351Z,2.57
2019-03-24T23:05:38.838Z,2.30
2019-03-24T23:08:06.777Z,2.50
2019-03-24T23:10:35.460Z,2.47
2019-03-24T23:13:03.972Z,2.50
2019-03-24T23:15:32.217Z,2.83
2019-03-24T23:18:01.125Z,2.60
2019-03-24T23:20:29.406Z,2.20
2019-03-24T23:22:57.594Z,2.77
2019-03-24T23:25:26.370Z,2.00
2019-03-24T23:27:54.672Z,2.90
2019-03-24T23:30:22.922Z,2.57
2019-03-24T23:32:51.225Z,2.53
2019-03-24T23:35:19.777Z,2.30
2019-03-24T23:37:48.438Z,2.30
2019-03-24T23:40:16.355Z,2.23
2019-03-24T23:42:44.917Z,2.20
2019-03-24T23:45:13.507Z,2.40
2019-03-24T23:47:41.785Z,2.80
2019-03-24T23:50:10.169Z,2.70
2019-03-24T23:52:38.386Z,2.20
2019-03-24T23:55:07.022Z,3.03
2019-03-24T23:57:35.340Z,2.80
